sensor_id;sensor_type;location;lat;lon;timestamp;P1;durP1;ratioP1;P2;durP2;ratioP2
20038;SDS011;21737;42.868;25.320;2023-03-31T00:02:19;12.80;;;6.43;;
20038;SDS011;21737;42.868;25.320;2023-03-31T00:05:23;16.83;;;6.93;;
20038;SDS011;21737;42.868;25.320;2023-03-31T00:08:26;11.40;;;6.00;;
20038;SDS011;21737;42.868;25.320;2023-03-31T00:11:31;9.67;;;5.00;;
20038;SDS011;21737;42.868;25.320;2023-03-31T00:14:32;10.57;;;4.90;;
20038;SDS011;21737;42.868;25.320;2023-03-31T00:17:34;6.97;;;4.33;;
20038;SDS011;21737;42.868;25.320;2023-03-31T00:20:36;6.20;;;3.13;;
20038;SDS011;21737;42.868;25.320;2023-03-31T00:23:39;10.93;;;3.77;;
20038;SDS011;21737;42.868;25.320;2023-03-31T00:26:42;6.37;;;3.20;;
20038;SDS011;21737;42.868;25.320;2023-03-31T00:29:44;5.43;;;3.30;;
20038;SDS011;21737;42.868;25.320;2023-03-31T00:32:46;6.43;;;3.40;;
20038;SDS011;21737;42.868;25.320;2023-03-31T00:35:50;6.23;;;3.30;;
20038;SDS011;21737;42.868;25.320;2023-03-31T00:38:53;8.70;;;3.77;;
20038;SDS011;21737;42.868;25.320;2023-03-31T00:41:54;6.73;;;3.53;;
20038;SDS011;21737;42.868;25.320;2023-03-31T00:48:19;7.30;;;3.70;;
20038;SDS011;21737;42.868;25.320;2023-03-31T00:51:21;7.30;;;3.57;;
20038;SDS011;21737;42.868;25.320;2023-03-31T00:54:24;11.53;;;2.67;;
20038;SDS011;21737;42.868;25.320;2023-03-31T00:57:27;5.27;;;2.37;;
20038;SDS011;21737;42.868;25.320;2023-03-31T01:00:32;4.83;;;2.57;;
20038;SDS011;21737;42.868;25.320;2023-03-31T01:03:34;5.80;;;2.90;;
20038;SDS011;21737;42.868;25.320;2023-03-31T01:06:37;4.43;;;2.07;;
20038;SDS011;21737;42.868;25.320;2023-03-31T01:09:43;5.90;;;2.13;;
20038;SDS011;21737;42.868;25.320;2023-03-31T01:12:49;3.87;;;2.07;;
20038;SDS011;21737;42.868;25.320;2023-03-31T01:15:52;4.37;;;2.23;;
20038;SDS011;21737;42.868;25.320;2023-03-31T01:18:54;4.07;;;2.50;;
20038;SDS011;21737;42.868;25.320;2023-03-31T01:22:09;7.63;;;3.03;;
20038;SDS011;21737;42.868;25.320;2023-03-31T01:25:41;3.60;;;2.10;;
20038;SDS011;21737;42.868;25.320;2023-03-31T01:35:54;2.53;;;1.87;;
20038;SDS011;21737;42.868;25.320;2023-03-31T01:42:08;4.43;;;2.33;;
20038;SDS011;21737;42.868;25.320;2023-03-31T01:45:21;3.17;;;2.13;;
20038;SDS011;21737;42.868;25.320;2023-03-31T01:54:52;5.90;;;2.80;;
20038;SDS011;21737;42.868;25.320;2023-03-31T02:02:03;4.50;;;2.00;;
20038;SDS011;21737;42.868;25.320;2023-03-31T02:04:58;6.47;;;2.87;;
20038;SDS011;21737;42.868;25.320;2023-03-31T02:08:03;4.90;;;2.40;;
20038;SDS011;21737;42.868;25.320;2023-03-31T02:11:06;8.43;;;2.80;;
20038;SDS011;21737;42.868;25.320;2023-03-31T02:14:09;5.50;;;2.97;;
20038;SDS011;21737;42.868;25.320;2023-03-31T02:17:14;6.57;;;3.20;;
20038;SDS011;21737;42.868;25.320;2023-03-31T02:20:18;5.30;;;2.93;;
20038;SDS011;21737;42.868;25.320;2023-03-31T02:23:23;5.37;;;3.10;;
20038;SDS011;21737;42.868;25.320;2023-03-31T02:26:27;5.87;;;3.40;;
20038;SDS011;21737;42.868;25.320;2023-03-31T02:29:31;5.37;;;3.50;;
20038;SDS011;21737;42.868;25.320;2023-03-31T02:32:34;6.40;;;3.30;;
20038;SDS011;21737;42.868;25.320;2023-03-31T02:35:37;7.50;;;3.37;;
20038;SDS011;21737;42.868;25.320;2023-03-31T02:38:42;6.37;;;3.23;;
20038;SDS011;21737;42.868;25.320;2023-03-31T02:41:44;6.30;;;2.77;;
20038;SDS011;21737;42.868;25.320;2023-03-31T02:44:46;5.07;;;3.33;;
20038;SDS011;21737;42.868;25.320;2023-03-31T02:47:48;5.97;;;2.87;;
20038;SDS011;21737;42.868;25.320;2023-03-31T02:54:05;6.77;;;3.73;;
20038;SDS011;21737;42.868;25.320;2023-03-31T03:06:41;27.47;;;5.77;;
20038;SDS011;21737;42.868;25.320;2023-03-31T03:13:07;11.87;;;4.90;;
20038;SDS011;21737;42.868;25.320;2023-03-31T03:19:19;15.83;;;7.10;;
20038;SDS011;21737;42.868;25.320;2023-03-31T03:22:22;10.43;;;5.70;;
20038;SDS011;21737;42.868;25.320;2023-03-31T03:25:23;14.27;;;6.17;;
20038;SDS011;21737;42.868;25.320;2023-03-31T03:28:26;12.37;;;6.27;;
20038;SDS011;21737;42.868;25.320;2023-03-31T03:31:28;11.97;;;5.60;;
20038;SDS011;21737;42.868;25.320;2023-03-31T03:34:31;12.93;;;5.33;;
20038;SDS011;21737;42.868;25.320;2023-03-31T03:37:33;12.50;;;5.93;;
20038;SDS011;21737;42.868;25.320;2023-03-31T03:40:35;12.60;;;5.97;;
20038;SDS011;21737;42.868;25.320;2023-03-31T03:43:36;12.73;;;6.30;;
20038;SDS011;21737;42.868;25.320;2023-03-31T03:46:38;12.47;;;6.07;;
20038;SDS011;21737;42.868;25.320;2023-03-31T03:49:40;15.87;;;6.20;;
20038;SDS011;21737;42.868;25.320;2023-03-31T03:52:41;12.93;;;6.07;;
20038;SDS011;21737;42.868;25.320;2023-03-31T03:55:43;13.00;;;5.60;;
20038;SDS011;21737;42.868;25.320;2023-03-31T03:58:45;11.43;;;6.90;;
20038;SDS011;21737;42.868;25.320;2023-03-31T04:01:47;17.47;;;8.87;;
20038;SDS011;21737;42.868;25.320;2023-03-31T04:04:49;20.30;;;9.50;;
20038;SDS011;21737;42.868;25.320;2023-03-31T04:07:51;13.13;;;6.90;;
20038;SDS011;21737;42.868;25.320;2023-03-31T04:10:52;12.43;;;6.60;;
20038;SDS011;21737;42.868;25.320;2023-03-31T04:13:54;19.13;;;7.00;;
20038;SDS011;21737;42.868;25.320;2023-03-31T04:16:56;12.70;;;6.73;;
20038;SDS011;21737;42.868;25.320;2023-03-31T04:19:59;21.00;;;9.43;;
20038;SDS011;21737;42.868;25.320;2023-03-31T04:23:02;25.23;;;10.40;;
20038;SDS011;21737;42.868;25.320;2023-03-31T04:26:06;23.50;;;11.27;;
20038;SDS011;21737;42.868;25.320;2023-03-31T04:29:09;21.20;;;10.43;;
20038;SDS011;21737;42.868;25.320;2023-03-31T04:32:13;20.67;;;9.93;;
20038;SDS011;21737;42.868;25.320;2023-03-31T04:35:18;22.10;;;10.33;;
20038;SDS011;21737;42.868;25.320;2023-03-31T04:38:22;28.50;;;13.47;;
20038;SDS011;21737;42.868;25.320;2023-03-31T04:41:24;36.80;;;17.60;;
20038;SDS011;21737;42.868;25.320;2023-03-31T04:44:27;49.03;;;19.30;;
20038;SDS011;21737;42.868;25.320;2023-03-31T04:47:29;36.23;;;15.20;;
20038;SDS011;21737;42.868;25.320;2023-03-31T04:50:31;47.87;;;17.17;;
20038;SDS011;21737;42.868;25.320;2023-03-31T04:53:33;45.47;;;17.57;;
20038;SDS011;21737;42.868;25.320;2023-03-31T04:56:34;32.00;;;15.63;;
20038;SDS011;21737;42.868;25.320;2023-03-31T04:59:36;41.23;;;16.47;;
20038;SDS011;21737;42.868;25.320;2023-03-31T05:02:38;28.17;;;14.77;;
20038;SDS011;21737;42.868;25.320;2023-03-31T05:05:40;32.80;;;15.27;;
20038;SDS011;21737;42.868;25.320;2023-03-31T05:08:42;31.13;;;14.47;;
20038;SDS011;21737;42.868;25.320;2023-03-31T05:11:44;35.57;;;15.80;;
20038;SDS011;21737;42.868;25.320;2023-03-31T05:14:45;34.40;;;15.23;;
20038;SDS011;21737;42.868;25.320;2023-03-31T05:17:47;25.87;;;15.27;;
20038;SDS011;21737;42.868;25.320;2023-03-31T05:20:49;30.87;;;15.73;;
20038;SDS011;21737;42.868;25.320;2023-03-31T05:23:51;28.67;;;14.27;;
20038;SDS011;21737;42.868;25.320;2023-03-31T05:26:53;24.17;;;13.17;;
20038;SDS011;21737;42.868;25.320;2023-03-31T05:29:55;25.27;;;13.80;;
20038;SDS011;21737;42.868;25.320;2023-03-31T05:32:56;29.73;;;15.53;;
20038;SDS011;21737;42.868;25.320;2023-03-31T05:35:58;30.20;;;15.33;;
20038;SDS011;21737;42.868;25.320;2023-03-31T05:39:00;31.00;;;17.90;;
20038;SDS011;21737;42.868;25.320;2023-03-31T05:42:02;23.27;;;13.27;;
20038;SDS011;21737;42.868;25.320;2023-03-31T05:45:06;53.20;;;28.50;;
20038;SDS011;21737;42.868;25.320;2023-03-31T05:48:09;34.57;;;17.73;;
20038;SDS011;21737;42.868;25.320;2023-03-31T05:51:11;33.40;;;17.13;;
20038;SDS011;21737;42.868;25.320;2023-03-31T05:54:13;35.37;;;17.67;;
20038;SDS011;21737;42.868;25.320;2023-03-31T05:57:14;35.63;;;16.40;;
20038;SDS011;21737;42.868;25.320;2023-03-31T06:00:16;20.10;;;10.80;;
20038;SDS011;21737;42.868;25.320;2023-03-31T06:03:18;25.93;;;14.40;;
20038;SDS011;21737;42.868;25.320;2023-03-31T06:06:20;35.53;;;17.47;;
20038;SDS011;21737;42.868;25.320;2023-03-31T06:09:21;36.20;;;17.10;;
20038;SDS011;21737;42.868;25.320;2023-03-31T06:12:23;39.13;;;18.23;;
20038;SDS011;21737;42.868;25.320;2023-03-31T06:15:25;38.40;;;19.90;;
20038;SDS011;21737;42.868;25.320;2023-03-31T06:18:27;43.50;;;23.53;;
20038;SDS011;21737;42.868;25.320;2023-03-31T06:21:29;35.67;;;22.63;;
20038;SDS011;21737;42.868;25.320;2023-03-31T06:24:31;39.43;;;22.00;;
20038;SDS011;21737;42.868;25.320;2023-03-31T06:27:32;42.80;;;22.43;;
20038;SDS011;21737;42.868;25.320;2023-03-31T06:30:34;38.27;;;21.50;;
20038;SDS011;21737;42.868;25.320;2023-03-31T06:33:36;36.63;;;19.07;;
20038;SDS011;21737;42.868;25.320;2023-03-31T06:36:38;38.10;;;20.20;;
20038;SDS011;21737;42.868;25.320;2023-03-31T06:39:40;40.87;;;22.93;;
20038;SDS011;21737;42.868;25.320;2023-03-31T06:42:42;42.17;;;24.37;;
20038;SDS011;21737;42.868;25.320;2023-03-31T06:45:44;48.20;;;26.50;;
20038;SDS011;21737;42.868;25.320;2023-03-31T06:48:46;52.37;;;27.27;;
20038;SDS011;21737;42.868;25.320;2023-03-31T06:51:47;56.43;;;27.77;;
20038;SDS011;21737;42.868;25.320;2023-03-31T06:54:49;41.23;;;22.17;;
20038;SDS011;21737;42.868;25.320;2023-03-31T06:57:51;45.27;;;23.90;;
20038;SDS011;21737;42.868;25.320;2023-03-31T07:00:53;42.70;;;25.27;;
20038;SDS011;21737;42.868;25.320;2023-03-31T07:03:54;43.90;;;25.33;;
20038;SDS011;21737;42.868;25.320;2023-03-31T07:06:59;45.63;;;23.03;;
20038;SDS011;21737;42.868;25.320;2023-03-31T07:10:02;43.20;;;20.97;;
20038;SDS011;21737;42.868;25.320;2023-03-31T07:13:04;39.20;;;21.27;;
20038;SDS011;21737;42.868;25.320;2023-03-31T07:16:06;32.03;;;17.00;;
20038;SDS011;21737;42.868;25.320;2023-03-31T07:19:10;16.33;;;8.60;;
20038;SDS011;21737;42.868;25.320;2023-03-31T07:22:12;13.63;;;8.47;;
20038;SDS011;21737;42.868;25.320;2023-03-31T07:25:15;19.70;;;11.57;;
20038;SDS011;21737;42.868;25.320;2023-03-31T07:28:17;17.40;;;8.77;;
20038;SDS011;21737;42.868;25.320;2023-03-31T07:31:19;21.23;;;12.87;;
20038;SDS011;21737;42.868;25.320;2023-03-31T07:34:20;17.47;;;10.37;;
20038;SDS011;21737;42.868;25.320;2023-03-31T07:37:22;19.13;;;9.97;;
20038;SDS011;21737;42.868;25.320;2023-03-31T07:40:25;15.33;;;8.47;;
20038;SDS011;21737;42.868;25.320;2023-03-31T07:43:27;12.57;;;7.63;;
20038;SDS011;21737;42.868;25.320;2023-03-31T07:46:28;16.23;;;10.23;;
20038;SDS011;21737;42.868;25.320;2023-03-31T07:49:31;16.57;;;9.73;;
20038;SDS011;21737;42.868;25.320;2023-03-31T07:52:33;31.57;;;17.63;;
20038;SDS011;21737;42.868;25.320;2023-03-31T07:55:35;18.77;;;10.63;;
20038;SDS011;21737;42.868;25.320;2023-03-31T07:58:36;17.00;;;10.73;;
20038;SDS011;21737;42.868;25.320;2023-03-31T08:01:38;21.60;;;12.00;;
20038;SDS011;21737;42.868;25.320;2023-03-31T08:04:40;36.23;;;22.37;;
20038;SDS011;21737;42.868;25.320;2023-03-31T08:07:45;49.07;;;27.13;;
20038;SDS011;21737;42.868;25.320;2023-03-31T08:10:47;49.63;;;28.53;;
20038;SDS011;21737;42.868;25.320;2023-03-31T08:13:49;48.23;;;29.43;;
20038;SDS011;21737;42.868;25.320;2023-03-31T08:16:51;52.70;;;30.70;;
20038;SDS011;21737;42.868;25.320;2023-03-31T08:19:55;38.57;;;25.50;;
20038;SDS011;21737;42.868;25.320;2023-03-31T08:23:00;36.27;;;23.37;;
20038;SDS011;21737;42.868;25.320;2023-03-31T08:29:10;39.90;;;25.07;;
20038;SDS011;21737;42.868;25.320;2023-03-31T08:32:11;51.30;;;30.57;;
20038;SDS011;21737;42.868;25.320;2023-03-31T08:35:13;62.43;;;35.07;;
20038;SDS011;21737;42.868;25.320;2023-03-31T08:38:15;41.30;;;24.93;;
20038;SDS011;21737;42.868;25.320;2023-03-31T08:44:35;50.57;;;31.10;;
20038;SDS011;21737;42.868;25.320;2023-03-31T08:47:38;29.77;;;19.33;;
20038;SDS011;21737;42.868;25.320;2023-03-31T08:50:42;21.93;;;13.80;;
20038;SDS011;21737;42.868;25.320;2023-03-31T08:56:53;35.57;;;16.20;;
20038;SDS011;21737;42.868;25.320;2023-03-31T08:59:55;18.40;;;9.53;;
20038;SDS011;21737;42.868;25.320;2023-03-31T09:02:59;14.63;;;7.37;;
20038;SDS011;21737;42.868;25.320;2023-03-31T09:06:07;44.40;;;12.17;;
20038;SDS011;21737;42.868;25.320;2023-03-31T09:09:40;27.60;;;10.27;;
20038;SDS011;21737;42.868;25.320;2023-03-31T09:12:38;12.27;;;6.73;;
20038;SDS011;21737;42.868;25.320;2023-03-31T09:15:48;12.07;;;6.53;;
20038;SDS011;21737;42.868;25.320;2023-03-31T09:18:51;17.23;;;6.77;;
20038;SDS011;21737;42.868;25.320;2023-03-31T09:21:54;14.53;;;5.63;;
20038;SDS011;21737;42.868;25.320;2023-03-31T09:28:12;24.27;;;7.97;;
20038;SDS011;21737;42.868;25.320;2023-03-31T09:31:17;21.77;;;6.10;;
20038;SDS011;21737;42.868;25.320;2023-03-31T09:34:24;10.73;;;6.60;;
20038;SDS011;21737;42.868;25.320;2023-03-31T09:37:29;11.73;;;5.87;;
20038;SDS011;21737;42.868;25.320;2023-03-31T09:40:32;14.13;;;5.47;;
20038;SDS011;21737;42.868;25.320;2023-03-31T09:43:34;12.37;;;5.40;;
20038;SDS011;21737;42.868;25.320;2023-03-31T09:46:36;10.00;;;4.70;;
20038;SDS011;21737;42.868;25.320;2023-03-31T09:49:38;10.30;;;5.67;;
20038;SDS011;21737;42.868;25.320;2023-03-31T09:52:58;8.93;;;5.23;;
20038;SDS011;21737;42.868;25.320;2023-03-31T09:56:02;10.80;;;5.73;;
20038;SDS011;21737;42.868;25.320;2023-03-31T09:59:04;16.97;;;7.53;;
20038;SDS011;21737;42.868;25.320;2023-03-31T10:02:20;13.07;;;5.83;;
20038;SDS011;21737;42.868;25.320;2023-03-31T10:05:31;7.27;;;4.60;;
20038;SDS011;21737;42.868;25.320;2023-03-31T10:11:58;13.07;;;5.70;;
20038;SDS011;21737;42.868;25.320;2023-03-31T10:15:13;11.00;;;6.70;;
20038;SDS011;21737;42.868;25.320;2023-03-31T10:18:18;10.13;;;5.50;;
20038;SDS011;21737;42.868;25.320;2023-03-31T10:21:22;12.43;;;5.17;;
20038;SDS011;21737;42.868;25.320;2023-03-31T10:24:25;10.47;;;5.27;;
20038;SDS011;21737;42.868;25.320;2023-03-31T10:27:29;9.03;;;4.70;;
20038;SDS011;21737;42.868;25.320;2023-03-31T10:30:34;9.67;;;5.53;;
20038;SDS011;21737;42.868;25.320;2023-03-31T10:33:40;8.03;;;5.20;;
20038;SDS011;21737;42.868;25.320;2023-03-31T10:36:47;8.93;;;4.43;;
20038;SDS011;21737;42.868;25.320;2023-03-31T10:39:56;10.63;;;4.80;;
20038;SDS011;21737;42.868;25.320;2023-03-31T10:43:17;6.37;;;4.23;;
20038;SDS011;21737;42.868;25.320;2023-03-31T10:46:19;10.53;;;6.73;;
20038;SDS011;21737;42.868;25.320;2023-03-31T10:52:24;9.20;;;5.17;;
20038;SDS011;21737;42.868;25.320;2023-03-31T10:55:27;17.30;;;9.83;;
20038;SDS011;21737;42.868;25.320;2023-03-31T11:01:45;8.43;;;6.17;;
20038;SDS011;21737;42.868;25.320;2023-03-31T11:08:15;13.37;;;6.67;;
20038;SDS011;21737;42.868;25.320;2023-03-31T11:36:48;10.20;;;5.83;;
20038;SDS011;21737;42.868;25.320;2023-03-31T11:49:36;9.97;;;4.60;;
20038;SDS011;21737;42.868;25.320;2023-03-31T11:52:45;7.43;;;5.50;;
20038;SDS011;21737;42.868;25.320;2023-03-31T11:55:49;9.77;;;5.57;;
20038;SDS011;21737;42.868;25.320;2023-03-31T11:58:53;7.40;;;5.30;;
20038;SDS011;21737;42.868;25.320;2023-03-31T12:02:00;7.93;;;5.30;;
20038;SDS011;21737;42.868;25.320;2023-03-31T12:05:04;15.10;;;5.37;;
20038;SDS011;21737;42.868;25.320;2023-03-31T12:11:13;12.03;;;5.60;;
20038;SDS011;21737;42.868;25.320;2023-03-31T12:17:36;12.40;;;6.97;;
20038;SDS011;21737;42.868;25.320;2023-03-31T12:20:39;10.93;;;6.37;;
20038;SDS011;21737;42.868;25.320;2023-03-31T12:23:43;6.73;;;5.10;;
20038;SDS011;21737;42.868;25.320;2023-03-31T12:26:50;8.57;;;4.43;;
20038;SDS011;21737;42.868;25.320;2023-03-31T12:33:00;6.40;;;4.40;;
20038;SDS011;21737;42.868;25.320;2023-03-31T12:55:32;4.57;;;3.30;;
20038;SDS011;21737;42.868;25.320;2023-03-31T12:58:40;6.40;;;3.40;;
20038;SDS011;21737;42.868;25.320;2023-03-31T13:08:57;11.67;;;4.97;;
20038;SDS011;21737;42.868;25.320;2023-03-31T13:11:51;5.00;;;3.37;;
20038;SDS011;21737;42.868;25.320;2023-03-31T13:14:53;12.67;;;4.10;;
20038;SDS011;21737;42.868;25.320;2023-03-31T13:18:00;8.47;;;4.30;;
20038;SDS011;21737;42.868;25.320;2023-03-31T13:21:03;6.63;;;3.20;;
20038;SDS011;21737;42.868;25.320;2023-03-31T13:24:06;7.97;;;3.20;;
20038;SDS011;21737;42.868;25.320;2023-03-31T13:27:28;5.33;;;3.40;;
20038;SDS011;21737;42.868;25.320;2023-03-31T13:33:42;5.90;;;3.83;;
20038;SDS011;21737;42.868;25.320;2023-03-31T13:37:08;7.20;;;3.23;;
20038;SDS011;21737;42.868;25.320;2023-03-31T14:09:29;9.87;;;5.13;;
20038;SDS011;21737;42.868;25.320;2023-03-31T14:12:36;6.77;;;3.63;;
20038;SDS011;21737;42.868;25.320;2023-03-31T14:18:44;7.00;;;4.53;;
20038;SDS011;21737;42.868;25.320;2023-03-31T14:28:27;7.20;;;3.37;;
20038;SDS011;21737;42.868;25.320;2023-03-31T14:31:42;7.73;;;4.33;;
20038;SDS011;21737;42.868;25.320;2023-03-31T14:37:54;12.00;;;3.80;;
20038;SDS011;21737;42.868;25.320;2023-03-31T14:40:56;5.93;;;3.67;;
20038;SDS011;21737;42.868;25.320;2023-03-31T14:44:02;7.67;;;3.70;;
20038;SDS011;21737;42.868;25.320;2023-03-31T14:47:05;13.97;;;6.40;;
20038;SDS011;21737;42.868;25.320;2023-03-31T14:50:16;7.03;;;3.87;;
20038;SDS011;21737;42.868;25.320;2023-03-31T14:53:22;14.90;;;4.73;;
20038;SDS011;21737;42.868;25.320;2023-03-31T14:56:29;7.20;;;5.17;;
20038;SDS011;21737;42.868;25.320;2023-03-31T14:59:34;9.90;;;4.60;;
20038;SDS011;21737;42.868;25.320;2023-03-31T15:02:36;6.67;;;3.87;;
20038;SDS011;21737;42.868;25.320;2023-03-31T15:05:40;7.70;;;4.20;;
20038;SDS011;21737;42.868;25.320;2023-03-31T15:08:44;6.23;;;4.03;;
20038;SDS011;21737;42.868;25.320;2023-03-31T15:11:46;7.37;;;5.27;;
20038;SDS011;21737;42.868;25.320;2023-03-31T15:14:49;12.90;;;8.00;;
20038;SDS011;21737;42.868;25.320;2023-03-31T15:17:52;5.30;;;4.10;;
20038;SDS011;21737;42.868;25.320;2023-03-31T15:20:54;5.17;;;3.67;;
20038;SDS011;21737;42.868;25.320;2023-03-31T15:23:57;10.33;;;4.10;;
20038;SDS011;21737;42.868;25.320;2023-03-31T15:30:07;14.37;;;6.63;;
20038;SDS011;21737;42.868;25.320;2023-03-31T15:33:14;13.27;;;5.90;;
20038;SDS011;21737;42.868;25.320;2023-03-31T15:36:20;9.87;;;5.60;;
20038;SDS011;21737;42.868;25.320;2023-03-31T15:39:26;11.10;;;5.27;;
20038;SDS011;21737;42.868;25.320;2023-03-31T15:42:28;8.63;;;4.40;;
20038;SDS011;21737;42.868;25.320;2023-03-31T15:48:49;7.53;;;5.00;;
20038;SDS011;21737;42.868;25.320;2023-03-31T15:51:53;16.90;;;10.23;;
20038;SDS011;21737;42.868;25.320;2023-03-31T15:54:55;10.50;;;6.10;;
20038;SDS011;21737;42.868;25.320;2023-03-31T15:57:58;12.90;;;6.20;;
20038;SDS011;21737;42.868;25.320;2023-03-31T16:01:02;8.03;;;5.77;;
20038;SDS011;21737;42.868;25.320;2023-03-31T16:04:06;9.37;;;5.13;;
20038;SDS011;21737;42.868;25.320;2023-03-31T16:07:14;6.07;;;4.10;;
20038;SDS011;21737;42.868;25.320;2023-03-31T16:10:18;11.33;;;5.73;;
20038;SDS011;21737;42.868;25.320;2023-03-31T16:13:21;11.93;;;6.07;;
20038;SDS011;21737;42.868;25.320;2023-03-31T16:16:24;20.50;;;9.67;;
20038;SDS011;21737;42.868;25.320;2023-03-31T16:19:28;10.60;;;5.33;;
20038;SDS011;21737;42.868;25.320;2023-03-31T16:22:33;8.73;;;5.97;;
20038;SDS011;21737;42.868;25.320;2023-03-31T16:25:38;11.97;;;7.73;;
20038;SDS011;21737;42.868;25.320;2023-03-31T16:28:40;11.73;;;6.63;;
20038;SDS011;21737;42.868;25.320;2023-03-31T16:31:41;13.90;;;8.57;;
20038;SDS011;21737;42.868;25.320;2023-03-31T16:34:53;17.57;;;8.77;;
20038;SDS011;21737;42.868;25.320;2023-03-31T16:37:55;446.13;;;157.63;;
20038;SDS011;21737;42.868;25.320;2023-03-31T16:40:57;501.63;;;159.70;;
20038;SDS011;21737;42.868;25.320;2023-03-31T16:43:59;699.17;;;328.33;;
20038;SDS011;21737;42.868;25.320;2023-03-31T16:47:01;116.83;;;53.60;;
20038;SDS011;21737;42.868;25.320;2023-03-31T16:50:03;34.47;;;19.20;;
20038;SDS011;21737;42.868;25.320;2023-03-31T16:53:08;125.50;;;60.63;;
20038;SDS011;21737;42.868;25.320;2023-03-31T16:56:09;34.80;;;21.67;;
20038;SDS011;21737;42.868;25.320;2023-03-31T16:59:13;70.97;;;39.73;;
20038;SDS011;21737;42.868;25.320;2023-03-31T17:02:15;56.43;;;30.60;;
20038;SDS011;21737;42.868;25.320;2023-03-31T17:05:16;50.50;;;27.10;;
20038;SDS011;21737;42.868;25.320;2023-03-31T17:08:18;32.70;;;19.90;;
20038;SDS011;21737;42.868;25.320;2023-03-31T17:11:20;38.00;;;23.00;;
20038;SDS011;21737;42.868;25.320;2023-03-31T17:14:23;40.20;;;21.67;;
20038;SDS011;21737;42.868;25.320;2023-03-31T17:17:25;29.83;;;17.13;;
20038;SDS011;21737;42.868;25.320;2023-03-31T17:20:26;29.80;;;17.67;;
20038;SDS011;21737;42.868;25.320;2023-03-31T17:23:28;40.13;;;21.90;;
20038;SDS011;21737;42.868;25.320;2023-03-31T17:26:30;48.30;;;28.43;;
20038;SDS011;21737;42.868;25.320;2023-03-31T17:29:32;51.30;;;32.33;;
20038;SDS011;21737;42.868;25.320;2023-03-31T17:32:34;51.13;;;29.97;;
20038;SDS011;21737;42.868;25.320;2023-03-31T17:35:36;86.23;;;46.17;;
20038;SDS011;21737;42.868;25.320;2023-03-31T17:38:38;52.57;;;30.70;;
20038;SDS011;21737;42.868;25.320;2023-03-31T17:41:40;46.43;;;28.70;;
20038;SDS011;21737;42.868;25.320;2023-03-31T17:44:42;42.57;;;26.57;;
20038;SDS011;21737;42.868;25.320;2023-03-31T17:47:43;39.13;;;25.13;;
20038;SDS011;21737;42.868;25.320;2023-03-31T17:50:46;40.20;;;23.90;;
20038;SDS011;21737;42.868;25.320;2023-03-31T17:53:48;36.60;;;20.30;;
20038;SDS011;21737;42.868;25.320;2023-03-31T17:56:50;41.37;;;22.00;;
20038;SDS011;21737;42.868;25.320;2023-03-31T17:59:52;27.07;;;16.07;;
20038;SDS011;21737;42.868;25.320;2023-03-31T18:02:53;28.43;;;16.23;;
20038;SDS011;21737;42.868;25.320;2023-03-31T18:05:56;19.97;;;12.90;;
20038;SDS011;21737;42.868;25.320;2023-03-31T18:08:57;28.07;;;17.00;;
20038;SDS011;21737;42.868;25.320;2023-03-31T18:11:59;21.93;;;14.50;;
20038;SDS011;21737;42.868;25.320;2023-03-31T18:15:02;22.37;;;13.30;;
20038;SDS011;21737;42.868;25.320;2023-03-31T18:18:05;21.07;;;12.40;;
20038;SDS011;21737;42.868;25.320;2023-03-31T18:21:08;20.57;;;12.97;;
20038;SDS011;21737;42.868;25.320;2023-03-31T18:24:10;28.80;;;15.20;;
20038;SDS011;21737;42.868;25.320;2023-03-31T18:27:14;27.77;;;17.53;;
20038;SDS011;21737;42.868;25.320;2023-03-31T18:30:15;33.40;;;20.97;;
20038;SDS011;21737;42.868;25.320;2023-03-31T18:33:18;28.60;;;15.83;;
20038;SDS011;21737;42.868;25.320;2023-03-31T18:36:21;33.27;;;18.07;;
20038;SDS011;21737;42.868;25.320;2023-03-31T18:39:23;33.13;;;16.40;;
20038;SDS011;21737;42.868;25.320;2023-03-31T18:42:25;26.83;;;15.83;;
20038;SDS011;21737;42.868;25.320;2023-03-31T18:45:27;20.43;;;11.20;;
20038;SDS011;21737;42.868;25.320;2023-03-31T18:48:28;22.07;;;13.27;;
20038;SDS011;21737;42.868;25.320;2023-03-31T18:51:30;18.83;;;11.50;;
20038;SDS011;21737;42.868;25.320;2023-03-31T18:54:33;22.17;;;12.30;;
20038;SDS011;21737;42.868;25.320;2023-03-31T18:57:35;18.10;;;12.40;;
20038;SDS011;21737;42.868;25.320;2023-03-31T19:00:36;19.40;;;12.30;;
20038;SDS011;21737;42.868;25.320;2023-03-31T19:03:38;15.43;;;10.70;;
20038;SDS011;21737;42.868;25.320;2023-03-31T19:06:40;18.70;;;10.00;;
20038;SDS011;21737;42.868;25.320;2023-03-31T19:09:42;24.73;;;13.20;;
20038;SDS011;21737;42.868;25.320;2023-03-31T19:12:47;25.97;;;14.73;;
20038;SDS011;21737;42.868;25.320;2023-03-31T19:15:49;16.00;;;9.90;;
20038;SDS011;21737;42.868;25.320;2023-03-31T19:18:51;17.53;;;10.37;;
20038;SDS011;21737;42.868;25.320;2023-03-31T19:21:53;15.53;;;10.17;;
20038;SDS011;21737;42.868;25.320;2023-03-31T19:24:55;13.70;;;8.93;;
20038;SDS011;21737;42.868;25.320;2023-03-31T19:27:56;14.53;;;9.43;;
20038;SDS011;21737;42.868;25.320;2023-03-31T19:30:58;12.20;;;7.90;;
20038;SDS011;21737;42.868;25.320;2023-03-31T19:34:06;13.53;;;8.57;;
20038;SDS011;21737;42.868;25.320;2023-03-31T19:37:09;14.10;;;8.93;;
20038;SDS011;21737;42.868;25.320;2023-03-31T19:40:11;18.03;;;10.70;;
20038;SDS011;21737;42.868;25.320;2023-03-31T19:43:17;16.43;;;10.53;;
20038;SDS011;21737;42.868;25.320;2023-03-31T19:46:21;15.77;;;9.40;;
20038;SDS011;21737;42.868;25.320;2023-03-31T19:49:23;15.03;;;8.27;;
20038;SDS011;21737;42.868;25.320;2023-03-31T19:52:24;14.27;;;9.20;;
20038;SDS011;21737;42.868;25.320;2023-03-31T19:55:26;14.67;;;8.90;;
20038;SDS011;21737;42.868;25.320;2023-03-31T19:58:28;13.90;;;8.83;;
20038;SDS011;21737;42.868;25.320;2023-03-31T20:01:31;17.23;;;10.00;;
20038;SDS011;21737;42.868;25.320;2023-03-31T20:04:33;16.33;;;10.40;;
20038;SDS011;21737;42.868;25.320;2023-03-31T20:07:35;19.60;;;11.87;;
20038;SDS011;21737;42.868;25.320;2023-03-31T20:10:36;20.60;;;12.07;;
20038;SDS011;21737;42.868;25.320;2023-03-31T20:13:39;21.37;;;12.80;;
20038;SDS011;21737;42.868;25.320;2023-03-31T20:16:41;20.00;;;12.27;;
20038;SDS011;21737;42.868;25.320;2023-03-31T20:19:42;20.67;;;12.77;;
20038;SDS011;21737;42.868;25.320;2023-03-31T20:22:45;24.40;;;16.07;;
20038;SDS011;21737;42.868;25.320;2023-03-31T20:25:47;26.57;;;15.70;;
20038;SDS011;21737;42.868;25.320;2023-03-31T20:28:48;24.27;;;16.17;;
20038;SDS011;21737;42.868;25.320;2023-03-31T20:31:50;25.80;;;14.77;;
20038;SDS011;21737;42.868;25.320;2023-03-31T20:34:52;22.27;;;13.40;;
20038;SDS011;21737;42.868;25.320;2023-03-31T20:37:55;17.17;;;11.07;;
20038;SDS011;21737;42.868;25.320;2023-03-31T20:40:57;22.53;;;13.30;;
20038;SDS011;21737;42.868;25.320;2023-03-31T20:43:59;23.33;;;13.30;;
20038;SDS011;21737;42.868;25.320;2023-03-31T20:47:01;21.23;;;13.60;;
20038;SDS011;21737;42.868;25.320;2023-03-31T20:50:03;21.67;;;11.33;;
20038;SDS011;21737;42.868;25.320;2023-03-31T20:53:05;23.53;;;12.53;;
20038;SDS011;21737;42.868;25.320;2023-03-31T20:56:08;17.00;;;10.03;;
20038;SDS011;21737;42.868;25.320;2023-03-31T20:59:10;21.50;;;10.40;;
20038;SDS011;21737;42.868;25.320;2023-03-31T21:02:13;16.07;;;10.47;;